Time;durP1;ratioP1;P1;durP2;ratioP2;P2;SDS_P1;SDS_P2;PMS_P1;PMS_P2;Temp;Humidity;BMP_temperature;BMP_pressure;BME280_temperature;BME280_humidity;BME280_pressure;Samples;Min_cycle;Max_cycle;Signal;HPM_P1;HPM_P2
2022/01/26 00:09:29;;;;;;;95.88;53.20;;;;;;;3.89;100.00;103373.50;10505852;28;20036;-80
2022/01/26 00:14:29;;;;;;;85.95;51.08;;;;;;;3.90;100.00;103377.88;10504377;28;20033;-80
2022/01/26 00:19:45;;;;;;;95.55;51.47;;;;;;;3.91;100.00;103368.88;10505146;28;20040;-80
2022/01/26 00:25:05;;;;;;;107.22;55.08;;;;;;;3.90;100.00;103364.47;10498177;28;20037;-80
2022/01/26 00:40:52;;;;;;;93.20;54.72;;;;;;;3.79;100.00;103340.13;10507204;28;20032;-80
2022/01/26 00:45:56;;;;;;;109.75;55.35;;;;;;;3.76;100.00;103340.31;10502999;28;20051;-80
2022/01/26 00:51:00;;;;;;;94.07;54.42;;;;;;;3.67;100.00;103343.56;10502132;28;20084;-80
2022/01/26 00:56:01;;;;;;;86.53;50.35;;;;;;;3.75;100.00;103341.28;10504249;28;20036;-79
2022/01/26 01:01:03;;;;;;;88.97;51.75;;;;;;;3.78;100.00;103335.75;10485990;28;20021;-79
2022/01/26 01:06:11;;;;;;;88.80;52.20;;;;;;;3.76;100.00;103334.09;10485331;28;20054;-80
2022/01/26 01:11:12;;;;;;;99.97;56.15;;;;;;;3.73;100.00;103319.97;10502307;28;20058;-80
2022/01/26 01:16:16;;;;;;;100.22;56.78;;;;;;;3.63;99.83;103318.75;10502047;28;20066;-80
2022/01/26 01:27:08;;;;;;;95.82;57.80;;;;;;;3.64;99.01;103301.75;10501770;28;20037;-80
2022/01/26 01:31:47;;;;;;;90.55;54.40;;;;;;;3.62;99.48;103300.97;10492934;28;20044;-80
2022/01/26 01:36:52;;;;;;;92.78;53.30;;;;;;;3.68;99.53;103299.75;10503057;28;20036;-80
2022/01/26 01:41:53;;;;;;;95.63;54.42;;;;;;;3.62;98.39;103292.94;10502153;28;20523;-80
2022/01/26 01:46:54;;;;;;;109.53;56.13;;;;;;;3.65;98.47;103289.22;10487768;28;20174;-80
2022/01/26 01:52:03;;;;;;;100.93;57.33;;;;;;;3.67;99.02;103285.50;10503267;28;20083;-80
2022/01/26 01:57:03;;;;;;;94.65;55.03;;;;;;;3.69;98.71;103272.84;10484899;28;20037;-79
2022/01/26 02:02:04;;;;;;;91.50;54.20;;;;;;;3.67;97.81;103266.72;10484051;28;20040;-80
2022/01/26 02:07:04;;;;;;;89.97;52.80;;;;;;;3.76;99.62;103275.16;10483380;28;20086;-80
2022/01/26 02:12:16;;;;;;;100.25;52.42;;;;;;;3.71;98.34;103275.44;10467068;28;20468;-80
2022/01/26 02:17:35;;;;;;;106.20;55.97;;;;;;;3.78;99.24;103278.59;10500465;28;20119;-80
2022/01/26 03:05:05;;;;;;;116.13;56.50;;;;;;;3.50;97.50;103232.91;10513241;28;20041;-80
2022/01/26 03:10:32;;;;;;;127.50;63.50;;;;;;;3.53;98.46;103222.97;10498212;28;20040;-80
2022/01/26 03:15:38;;;;;;;106.35;59.40;;;;;;;3.57;98.89;103206.59;10498227;28;20046;-80
2022/01/26 03:20:52;;;;;;;109.07;57.28;;;;;;;3.58;98.41;103207.50;10500972;28;20036;-80
2022/01/26 03:36:21;;;;;;;111.53;56.45;;;;;;;3.61;99.27;103213.53;10502202;28;20074;-80
2022/01/26 03:46:30;;;;;;;108.90;60.25;;;;;;;3.67;100.00;103193.50;10491088;28;20131;-80
2022/01/26 03:51:31;;;;;;;107.70;57.97;;;;;;;3.68;100.00;103211.31;10511240;28;20471;-80
2022/01/26 03:56:32;;;;;;;110.97;59.22;;;;;;;3.74;100.00;103237.75;10506843;28;20039;-80
2022/01/26 04:01:33;;;;;;;107.78;59.63;;;;;;;3.76;100.00;103238.47;10474443;28;20036;-80
2022/01/26 04:06:34;;;;;;;112.80;59.33;;;;;;;3.79;100.00;103249.00;10524998;28;20036;-81
2022/01/26 04:11:38;;;;;;;100.95;54.95;;;;;;;3.86;100.00;103260.22;10527006;28;20171;-80
2022/01/26 04:16:39;;;;;;;118.75;57.80;;;;;;;3.86;100.00;103258.41;10521139;28;20024;-80
2022/01/26 04:21:57;;;;;;;91.43;52.30;;;;;;;3.92;100.00;103266.06;10481954;28;20025;-80
2022/01/26 04:27:05;;;;;;;107.05;54.35;;;;;;;3.97;100.00;103273.81;10499291;28;20033;-80
2022/01/26 04:32:08;;;;;;;102.38;53.33;;;;;;;4.00;100.00;103230.72;10506844;28;20377;-80
2022/01/26 04:42:52;;;;;;;79.88;44.08;;;;;;;4.09;100.00;103197.97;10503453;28;20040;-80
2022/01/26 04:47:51;;;;;;;75.97;41.65;;;;;;;4.17;100.00;103232.34;10488360;28;20523;-80
2022/01/26 04:52:51;;;;;;;60.60;37.50;;;;;;;4.10;100.00;103214.91;10501210;28;20048;-80
2022/01/26 04:57:52;;;;;;;51.80;33.42;;;;;;;4.03;100.00;103235.91;10502661;28;20369;-80
2022/01/26 05:02:53;;;;;;;61.58;34.40;;;;;;;3.89;100.00;103233.22;10467414;28;20036;-80
2022/01/26 05:07:53;;;;;;;61.28;34.35;;;;;;;3.85;100.00;103231.69;10500214;28;20043;-82
2022/01/26 05:12:54;;;;;;;57.75;30.70;;;;;;;3.77;99.76;103226.81;10502329;28;20074;-81
2022/01/26 05:17:56;;;;;;;57.00;33.20;;;;;;;3.68;99.07;103205.97;10501705;28;20040;-80
2022/01/26 05:22:56;;;;;;;62.50;35.20;;;;;;;3.64;99.07;103213.34;10505642;28;20036;-81
2022/01/26 05:27:57;;;;;;;65.57;41.17;;;;;;;3.67;99.61;103202.44;10504531;28;20399;-81
2022/01/26 05:32:57;;;;;;;71.13;41.45;;;;;;;3.60;98.95;103205.56;10505492;28;20119;-80
2022/01/26 05:37:57;;;;;;;68.65;41.70;;;;;;;3.58;99.22;103196.78;10413154;28;20122;-78
2022/01/26 05:42:59;;;;;;;57.25;37.13;;;;;;;3.63;100.00;103211.59;10507631;28;20037;-80
2022/01/26 05:48:03;;;;;;;80.33;38.10;;;;;;;3.57;99.37;103206.59;10449577;28;1202456;-79
2022/01/26 05:53:03;;;;;;;76.72;41.58;;;;;;;3.60;99.35;103229.69;10506076;28;20686;-78
2022/01/26 05:58:05;;;;;;;67.20;38.83;;;;;;;3.55;99.32;103229.97;10472797;28;20028;-78
2022/01/26 06:03:05;;;;;;;70.60;35.25;;;;;;;3.48;98.13;103258.09;10503327;28;20033;-79
2022/01/26 06:08:06;;;;;;;74.22;39.08;;;;;;;3.50;98.70;103245.44;10483361;28;20024;-80
2022/01/26 06:13:07;;;;;;;69.82;41.03;;;;;;;3.52;99.56;103242.69;10502307;28;20043;-79
2022/01/26 06:18:10;;;;;;;67.82;38.72;;;;;;;3.50;99.16;103214.16;10503301;28;20071;-82
2022/01/26 06:23:11;;;;;;;69.03;38.00;;;;;;;3.39;97.86;103197.06;10445688;28;20076;-80
2022/01/26 06:28:15;;;;;;;57.20;32.90;;;;;;;3.42;98.20;103199.53;10501423;28;20052;-79
2022/01/26 06:33:16;;;;;;;53.38;35.72;;;;;;;3.49;98.71;103208.91;10483607;28;20086;-80
2022/01/26 06:38:16;;;;;;;65.40;34.95;;;;;;;3.47;98.22;103203.63;10482836;28;20417;-79
2022/01/26 06:43:17;;;;;;;62.00;37.75;;;;;;;3.50;98.48;103199.91;10485601;28;20045;-79
2022/01/26 06:53:20;;;;;;;58.72;34.10;;;;;;;3.53;98.75;103237.22;10500333;28;20067;-79
2022/01/26 06:58:21;;;;;;;51.88;32.75;;;;;;;3.57;98.83;103225.38;10499260;28;20079;-79
2022/01/26 07:03:21;;;;;;;57.17;31.40;;;;;;;3.54;98.28;103213.97;10500776;28;20432;-79
2022/01/26 07:08:21;;;;;;;61.22;37.08;;;;;;;3.58;98.14;103216.38;10498755;28;20036;-79
2022/01/26 07:13:24;;;;;;;57.35;35.47;;;;;;;3.64;98.81;103223.19;10498041;28;20124;-79
2022/01/26 07:23:44;;;;;;;70.75;38.65;;;;;;;3.68;98.29;103241.66;10498361;28;20075;-79
2022/01/26 07:28:45;;;;;;;55.40;34.92;;;;;;;3.80;99.04;103250.75;10499136;28;20113;-80
2022/01/26 07:33:45;;;;;;;61.83;35.28;;;;;;;3.83;98.88;103255.94;10480512;28;20032;-80
2022/01/26 07:38:49;;;;;;;59.80;35.20;;;;;;;3.93;99.70;103245.50;10481081;28;20052;-79
2022/01/26 07:43:51;;;;;;;74.00;34.97;;;;;;;3.93;99.74;103246.34;10508617;28;20451;-79
2022/01/26 07:48:54;;;;;;;60.45;30.58;;;;;;;4.03;99.89;103254.66;10500145;28;20127;-78
2022/01/26 07:53:54;;;;;;;52.10;29.42;;;;;;;4.03;99.53;103248.44;10514797;28;20070;-79
2022/01/26 07:58:56;;;;;;;62.95;27.90;;;;;;;4.09;99.14;103250.75;10482978;28;20041;-80
2022/01/26 08:03:56;;;;;;;52.28;25.45;;;;;;;4.01;97.32;103261.09;10481929;28;20083;-81
2022/01/26 08:08:57;;;;;;;43.13;24.73;;;;;;;3.96;98.46;103253.34;10502812;28;20375;-80
2022/01/26 08:13:58;;;;;;;45.40;25.25;;;;;;;3.94;98.46;103253.41;10497463;28;20045;-79
2022/01/26 08:18:58;;;;;;;65.57;30.15;;;;;;;4.02;98.72;103244.03;10496514;28;20056;-80
2022/01/26 08:24:03;;;;;;;44.17;23.42;;;;;;;4.10;99.45;103225.66;10501612;28;20399;-80
2022/01/26 08:29:07;;;;;;;41.10;26.33;;;;;;;4.16;99.93;103233.31;10505471;28;20048;-79
2022/01/26 08:34:13;;;;;;;48.95;26.42;;;;;;;4.22;100.00;103242.78;10487222;28;20032;-79
2022/01/26 08:39:14;;;;;;;47.25;28.30;;;;;;;4.27;100.00;103243.31;10505239;28;20028;-80
2022/01/26 08:44:14;;;;;;;53.58;28.88;;;;;;;4.32;100.00;103243.91;10503011;28;20506;-80
2022/01/26 08:49:15;;;;;;;60.40;30.48;;;;;;;4.40;100.00;103239.78;10503024;28;20357;-80
2022/01/26 08:54:19;;;;;;;46.70;26.60;;;;;;;4.43;100.00;103236.00;10503460;28;20464;-80
2022/01/26 08:59:21;;;;;;;45.72;26.67;;;;;;;4.49;99.75;103232.06;10503706;28;20048;-79
2022/01/26 09:04:22;;;;;;;53.15;30.02;;;;;;;4.56;99.56;103245.00;10470302;28;20036;-80
2022/01/26 09:09:23;;;;;;;42.40;26.15;;;;;;;4.62;99.14;103228.47;10504053;28;20067;-80
2022/01/26 09:14:27;;;;;;;39.95;27.60;;;;;;;4.68;98.71;103213.78;10487173;28;20158;-80
2022/01/26 09:19:30;;;;;;;36.05;25.20;;;;;;;4.77;99.13;103231.13;10485480;28;20112;-80
2022/01/26 09:24:32;;;;;;;43.15;23.50;;;;;;;4.79;97.41;103231.88;10501171;28;20086;-79
2022/01/26 09:29:34;;;;;;;40.90;26.10;;;;;;;4.82;97.01;103229.84;10500649;28;20048;-80
2022/01/26 09:34:35;;;;;;;35.10;21.98;;;;;;;4.92;96.98;103234.59;10483223;28;20345;-79
2022/01/26 09:39:37;;;;;;;37.60;24.08;;;;;;;5.00;97.41;103229.56;10484638;28;20127;-81
2022/01/26 09:44:38;;;;;;;42.47;26.42;;;;;;;5.04;96.75;103237.31;10504221;28;20145;-79
2022/01/26 09:49:38;;;;;;;33.88;22.80;;;;;;;5.11;96.86;103246.69;10484085;28;20123;-80
2022/01/26 09:54:41;;;;;;;35.15;20.45;;;;;;;5.16;96.43;103237.44;10484012;28;20361;-80
2022/01/26 09:59:41;;;;;;;35.72;19.77;;;;;;;5.27;94.77;103210.72;10467179;28;20067;-80
2022/01/26 10:04:42;;;;;;;36.13;19.10;;;;;;;5.42;95.13;103219.50;10500573;28;20085;-79
2022/01/26 10:20:50;;;;;;;26.20;17.50;;;;;;;5.74;95.91;103239.66;10439768;28;20036;-80
2022/01/26 10:26:28;;;;;;;31.20;18.00;;;;;;;5.76;94.58;103251.13;10484679;28;20155;-79
2022/01/26 10:31:31;;;;;;;24.65;16.73;;;;;;;5.87;95.88;103238.75;10433884;28;20048;-79
2022/01/26 10:36:54;;;;;;;29.00;18.77;;;;;;;5.99;96.61;103243.28;10498540;28;20453;-80
2022/01/26 10:41:59;;;;;;;28.17;18.30;;;;;;;6.13;96.63;103237.78;10499893;28;20119;-80
2022/01/26 10:47:01;;;;;;;32.00;16.92;;;;;;;6.20;95.10;103241.75;10467825;28;20032;-80
2022/01/26 10:52:21;;;;;;;31.48;14.93;;;;;;;6.33;95.48;103238.16;10481473;28;20522;-80
2022/01/26 10:57:34;;;;;;;25.08;17.92;;;;;;;6.34;92.51;103232.66;10496494;28;20471;-80
2022/01/26 11:02:35;;;;;;;24.70;15.07;;;;;;;6.36;91.16;103219.09;10482292;28;20028;-80
2022/01/26 11:07:37;;;;;;;25.48;15.98;;;;;;;6.39;90.27;103224.25;10464757;28;20032;-80
2022/01/26 11:12:39;;;;;;;27.13;15.30;;;;;;;6.50;92.20;103211.72;10465764;28;20055;-80
2022/01/26 11:17:47;;;;;;;26.02;14.85;;;;;;;6.55;90.33;103202.47;10465614;28;20037;-80
2022/01/26 11:23:15;;;;;;;22.88;15.25;;;;;;;6.56;88.51;103199.63;10513240;28;20088;-79
2022/01/26 11:28:16;;;;;;;29.73;15.60;;;;;;;6.61;88.78;103202.00;10522689;28;20036;-80
2022/01/26 11:33:19;;;;;;;30.23;18.30;;;;;;;6.63;87.75;103208.97;10516858;28;20036;-80
2022/01/26 11:49:08;;;;;;;26.00;14.07;;;;;;;6.82;87.34;103184.19;10497271;28;20061;-79
2022/01/26 11:54:23;;;;;;;21.58;14.80;;;;;;;6.87;88.05;103187.41;10499634;28;20039;-79
2022/01/26 11:59:26;;;;;;;32.67;15.77;;;;;;;6.92;89.64;103189.75;10488454;28;20039;-80
2022/01/26 12:04:26;;;;;;;18.35;13.55;;;;;;;6.95;89.44;103184.13;10506085;28;20039;-79
2022/01/26 12:09:27;;;;;;;24.90;14.20;;;;;;;7.01;89.12;103191.72;10508527;28;20075;-79
2022/01/26 12:14:27;;;;;;;19.33;14.23;;;;;;;7.13;91.55;103193.47;10506505;28;20040;-80
2022/01/26 12:35:32;;;;;;;20.10;13.97;;;;;;;7.04;91.14;103175.34;10505013;28;20048;-79
2022/01/26 12:45:54;;;;;;;29.50;15.88;;;;;;;6.89;87.52;103163.03;10504089;28;20040;-79
2022/01/26 12:50:55;;;;;;;33.88;13.15;;;;;;;6.95;87.78;103158.03;10486632;28;20481;-80
2022/01/26 12:55:57;;;;;;;17.70;14.10;;;;;;;6.97;88.31;103161.47;10469537;28;20162;-80
2022/01/26 13:01:01;;;;;;;27.65;14.82;;;;;;;6.89;88.40;103146.88;10504234;28;20081;-80
2022/01/26 13:06:12;;;;;;;26.25;15.13;;;;;;;6.84;88.25;103143.69;10503674;28;20472;-79
2022/01/26 13:11:13;;;;;;;32.50;15.82;;;;;;;6.89;88.57;103137.00;10504496;28;20035;-80
2022/01/26 13:16:22;;;;;;;36.60;16.02;;;;;;;6.95;90.17;103120.31;10502215;28;20032;-80
2022/01/26 13:21:41;;;;;;;25.83;13.98;;;;;;;6.93;88.82;103145.69;10469339;28;20405;-79
2022/01/26 13:26:58;;;;;;;30.70;13.98;;;;;;;6.86;88.96;103147.13;10504176;28;20434;-80
2022/01/26 13:32:17;;;;;;;21.45;13.75;;;;;;;6.85;89.65;103137.31;10486922;28;20036;-80
2022/01/26 13:37:37;;;;;;;25.92;15.32;;;;;;;6.80;88.10;103129.63;10473109;28;20392;-80
2022/01/26 13:43:14;;;;;;;27.90;14.30;;;;;;;6.81;90.06;103103.53;10502795;28;20106;-80
2022/01/26 13:48:38;;;;;;;20.05;14.48;;;;;;;6.80;90.50;103109.91;10500058;28;20391;-80
2022/01/26 14:03:48;;;;;;;40.22;16.38;;;;;;;6.64;89.59;103110.22;10503694;28;20379;-80
2022/01/26 14:08:50;;;;;;;32.80;17.00;;;;;;;6.70;90.59;103126.78;10484934;28;20032;-80
2022/01/26 14:13:54;;;;;;;29.05;18.33;;;;;;;6.72;90.93;103124.81;10501042;28;20039;-80
2022/01/26 14:19:07;;;;;;;26.52;16.42;;;;;;;6.72;90.33;103132.03;10466621;28;20399;-79
2022/01/26 14:29:30;;;;;;;24.40;16.25;;;;;;;6.70;90.61;103120.50;10499469;28;20106;-80
2022/01/26 14:40:36;;;;;;;22.65;15.52;;;;;;;6.72;91.71;103113.19;10498945;28;20070;-80
2022/01/26 17:25:15;;;;;;;46.95;28.08;;;;;;;4.99;99.17;103026.47;10501952;28;20040;-80
2022/01/26 18:07:18;;;;;;;50.83;31.05;;;;;;;5.11;98.80;103006.81;10500809;28;20032;-80
2022/01/26 18:13:09;;;;;;;42.28;25.65;;;;;;;5.08;98.67;103009.69;10501653;28;20456;-80
2022/01/26 18:33:17;;;;;;;56.50;31.73;;;;;;;5.08;98.90;103017.75;10492159;28;20040;-80
2022/01/26 18:49:13;;;;;;;50.72;30.52;;;;;;;5.08;98.93;103013.25;10499405;28;20072;-79
2022/01/26 18:54:16;;;;;;;52.38;33.90;;;;;;;5.07;99.28;103016.03;10484996;28;20395;-80
2022/01/26 18:59:17;;;;;;;46.05;29.92;;;;;;;5.15;99.39;103019.03;10504592;28;20079;-80
2022/01/26 19:04:28;;;;;;;46.20;29.88;;;;;;;5.10;98.99;103023.88;10501397;28;20037;-79
2022/01/26 19:09:33;;;;;;;54.92;29.95;;;;;;;5.06;99.18;103001.75;10497505;28;20036;-79
2022/01/26 19:14:38;;;;;;;40.75;25.25;;;;;;;5.10;99.23;103003.22;10499039;28;20067;-80
2022/01/26 19:30:05;;;;;;;33.67;24.85;;;;;;;5.22;98.96;102982.69;10500684;28;20115;-80
2022/01/26 19:45:58;;;;;;;40.08;23.05;;;;;;;5.42;98.74;102950.81;10497436;28;20036;-80
2022/01/26 19:50:58;;;;;;;32.80;19.58;;;;;;;5.44;98.67;102944.38;10481716;28;20491;-80
2022/01/26 19:55:59;;;;;;;45.35;20.35;;;;;;;5.45;98.24;102934.47;10502849;28;20120;-80
2022/01/26 20:00:59;;;;;;;35.45;18.65;;;;;;;5.46;98.39;102920.94;10482199;28;20041;-79
2022/01/26 20:06:00;;;;;;;32.28;17.75;;;;;;;5.47;98.09;102905.69;10497641;28;20111;-80
2022/01/26 20:11:07;;;;;;;25.35;16.40;;;;;;;5.46;97.94;102902.13;10497184;28;20450;-80
2022/01/26 20:16:09;;;;;;;32.75;17.52;;;;;;;5.49;97.23;102880.41;10501464;28;20384;-79
2022/01/26 20:21:10;;;;;;;25.75;16.73;;;;;;;5.60;97.38;102876.91;10521119;28;20029;-78
2022/01/26 20:26:12;;;;;;;25.60;14.57;;;;;;;5.51;95.28;102869.53;10530274;28;20448;-79
2022/01/26 20:31:24;;;;;;;24.48;14.80;;;;;;;5.57;95.02;102871.75;10507514;28;20068;-79
2022/01/26 20:36:28;;;;;;;16.13;11.70;;;;;;;5.59;92.87;102875.19;10476542;28;20064;-78
2022/01/26 20:41:29;;;;;;;28.35;13.55;;;;;;;5.56;91.24;102880.81;10505457;28;20020;-79
2022/01/26 20:46:30;;;;;;;24.00;15.90;;;;;;;5.58;90.97;102868.97;10505964;28;20040;-80
2022/01/26 20:51:31;;;;;;;29.17;15.32;;;;;;;5.63;92.08;102875.81;10487932;28;20102;-79
2022/01/26 20:56:31;;;;;;;23.85;13.95;;;;;;;5.66;91.28;102889.03;10491506;28;20131;-79
2022/01/26 21:01:32;;;;;;;24.23;13.18;;;;;;;5.56;89.10;102878.97;10509251;28;20387;-77
2022/01/26 21:06:32;;;;;;;23.75;14.60;;;;;;;5.65;90.43;102885.47;10488002;28;20047;-79
2022/01/26 21:11:33;;;;;;;28.75;14.65;;;;;;;5.58;89.85;102878.84;10504232;28;20028;-79
2022/01/26 21:16:33;;;;;;;21.42;13.32;;;;;;;5.63;89.47;102886.56;10499785;28;20052;-79
2022/01/26 21:21:35;;;;;;;20.25;13.05;;;;;;;5.62;89.68;102876.78;10499897;28;20016;-79
2022/01/26 21:26:36;;;;;;;25.63;14.32;;;;;;;5.66;90.15;102868.38;10490059;28;20032;-79
2022/01/26 21:31:36;;;;;;;26.50;14.88;;;;;;;5.63;89.75;102865.91;10523326;28;20040;-80
2022/01/26 21:36:37;;;;;;;22.45;15.10;;;;;;;5.57;89.12;102855.63;10486570;28;20036;-80
2022/01/26 21:41:39;;;;;;;20.58;15.02;;;;;;;5.49;89.43;102839.25;10505098;28;20123;-79
2022/01/26 21:46:42;;;;;;;26.65;15.95;;;;;;;5.48;89.71;102842.88;10504271;28;20364;-79
2022/01/26 21:51:42;;;;;;;23.67;15.52;;;;;;;5.54;90.29;102845.09;10504302;28;20063;-79
2022/01/26 21:56:43;;;;;;;31.33;16.05;;;;;;;5.54;90.19;102834.38;10503364;28;20039;-79
2022/01/26 22:01:43;;;;;;;23.17;14.93;;;;;;;5.57;90.79;102820.69;10492723;28;20108;-80
2022/01/26 22:06:44;;;;;;;24.92;14.68;;;;;;;5.56;90.61;102810.94;10503778;28;20118;-79
2022/01/26 22:11:44;;;;;;;21.38;15.07;;;;;;;5.65;91.06;102804.84;10502180;28;20487;-80
2022/01/26 22:16:45;;;;;;;30.58;15.32;;;;;;;5.66;90.98;102792.25;10510879;28;20036;-79
2022/01/26 22:21:46;;;;;;;19.92;11.10;;;;;;;5.67;91.36;102786.75;10527494;28;20108;-79
2022/01/26 22:26:46;;;;;;;34.22;13.50;;;;;;;5.76;92.10;102799.47;10508080;28;20043;-78
2022/01/26 22:31:47;;;;;;;21.52;13.25;;;;;;;5.83;91.94;102810.59;10487068;28;20031;-80
2022/01/26 22:36:47;;;;;;;19.75;12.60;;;;;;;5.89;92.29;102809.28;10483311;28;20040;-79
2022/01/26 22:41:48;;;;;;;19.83;12.10;;;;;;;5.88;92.42;102794.13;10498676;28;20038;-80
2022/01/26 22:46:48;;;;;;;22.73;12.80;;;;;;;5.89;91.33;102799.38;10500572;28;20037;-80
2022/01/26 22:51:50;;;;;;;20.80;13.43;;;;;;;5.86;91.64;102780.78;10499951;28;20052;-80
2022/01/26 22:56:51;;;;;;;24.92;13.40;;;;;;;5.90;91.31;102765.28;10499046;28;20135;-79
2022/01/26 23:07:12;;;;;;;20.67;12.48;;;;;;;5.94;91.08;102731.84;10484071;28;20048;-79
2022/01/26 23:12:12;;;;;;;17.40;12.48;;;;;;;5.92;90.43;102706.88;10488983;28;20410;-79
2022/01/26 23:17:13;;;;;;;19.00;11.13;;;;;;;5.89;90.58;102704.41;10523215;28;20036;-79
2022/01/26 23:22:13;;;;;;;27.52;12.18;;;;;;;5.98;91.00;102703.72;10492394;28;20065;-79
2022/01/26 23:27:23;;;;;;;21.00;13.18;;;;;;;6.08;91.53;102717.28;10482347;28;20039;-80
2022/01/26 23:38:00;;;;;;;22.40;11.93;;;;;;;6.01;91.42;102698.09;10501554;28;20032;-79
